ADDS METAR Data INFO
IDs: Format: Raw Decoded Include TAF

Data at: 0200 UTC 19 Jul 2018

KARM 190155Z AUTO 16008KT 10SM CLR 27/23 A2995 RMK AO2 T02730229
KARM 190135Z AUTO 16006KT 10SM CLR 28/23 A2994 RMK AO2 T02770226
KARM 190115Z AUTO 16006KT 10SM CLR 29/23 A2994 RMK AO2 T02870225
KARM 190055Z AUTO 16008KT 10SM CLR 30/23 A2993 RMK AO2 T02950225
KARM 190035Z AUTO 17009KT 10SM CLR 30/22 A2993 RMK AO2 T03030217
KARM 190015Z AUTO 17010KT 10SM CLR 31/21 A2993 RMK AO2 T03100214
KARM 182355Z AUTO 18008KT 10SM CLR 32/22 A2992 RMK AO2 T03170221 10359 20317
KARM 182335Z AUTO 16010KT 10SM CLR 32/22 A2993 RMK AO2 T03220220
KARM 182315Z AUTO 18010KT 10SM CLR 33/22 A2992 RMK AO2 T03260220
KARM 182255Z AUTO 17009KT 10SM CLR 33/22 A2992 RMK AO2 T03320218
KARM 182235Z AUTO 16011KT 10SM CLR 34/22 A2993 RMK AO2 T03360219
KARM 182215Z AUTO 16010KT 10SM CLR 34/22 A2993 RMK AO2 T03420216
KARM 182155Z AUTO 16011KT 10SM CLR 35/21 A2993 RMK AO2 T03480212
KARM 182135Z AUTO 17008KT 10SM CLR 35/19 A2993 RMK AO2 T03520192
KARM 182115Z AUTO 21008KT 10SM CLR 35/18 A2995 RMK AO2 T03520177
KARM 182100Z AUTO 18009KT 10SM CLR 36/17 A2995 RMK AO2 T03590173
KARM 182035Z AUTO 19006KT 10SM CLR 36/18 A2996 RMK AO2 T03570175
KARM 182020Z AUTO 22005KT 10SM CLR 36/17 A2996 RMK AO2 T03550170
KARM 181955Z AUTO 16005KT 10SM CLR 35/16 A2997 RMK AO2 T03510161
KARM 181935Z AUTO 17009KT 10SM CLR 35/17 A2997 RMK AO2 T03500169
KARM 181915Z AUTO 19006KT 10SM CLR 35/17 A2998 RMK AO2 T03480169
KARM 181855Z AUTO 18003KT 10SM CLR 34/18 A2999 RMK AO2 T03440182
KARM 181835Z AUTO 25005KT 10SM CLR 34/19 A3000 RMK AO2 T03420187
KARM 181815Z AUTO 20007KT 10SM CLR 34/19 A3000 RMK AO2 T03370189
KARM 181755Z AUTO 23007KT 10SM CLR 34/20 A3001 RMK AO2 T03370195 10337 20217
KARM 181735Z AUTO 20007KT 10SM CLR 33/20 A3001 RMK AO2 T03300200
KARM 181715Z AUTO 19008KT 10SM CLR 33/21 A3002 RMK AO2 T03260207
KARM 181655Z AUTO 22009KT 10SM CLR 32/21 A3003 RMK AO2 T03210210
KARM 181635Z AUTO 21007KT 160V280 10SM SCT029 32/22 A3003 RMK AO2 T03170216
KARM 181615Z AUTO 20009KT 10SM SCT027 31/22 A3003 RMK AO2 T03100220
KARM 181555Z AUTO 22008KT 10SM SCT025 31/22 A3003 RMK AO2 T03090222
KARM 181535Z AUTO 24008KT 10SM SCT023 30/22 A3003 RMK AO2 T03010223
KARM 181515Z AUTO 20010KT 10SM SCT021 30/23 A3004 RMK AO2 T03010226
KARM 181455Z AUTO 21007KT 10SM SCT017 29/24 A3004 RMK AO2 T02940235
KARM 181435Z AUTO 22009KT 7SM SCT017 29/24 A3004 RMK AO2 T02880239
KARM 181420Z AUTO 21008KT 10SM SCT009 SCT015 28/24 A3004 RMK AO2 T02810241
KARM 181400Z AUTO 20007KT 7SM CLR 27/25 A3004 RMK AO2 T02720248
KARM 181335Z AUTO 22004KT 7SM CLR 26/25 A3004 RMK AO2 T02600252
KARM 181315Z AUTO 22004KT 5SM BR CLR 25/25 A3004 RMK AO2 T02510245
KARM 181255Z AUTO 22004KT 5SM BR CLR 25/24 A3004 RMK AO2 T02450240
KARM 181235Z AUTO 22003KT 5SM BR CLR 24/24 A3004 RMK AO2 T02400235
KARM 181215Z AUTO 00000KT 4SM BR CLR 22/22 A3004 RMK AO2 T02210215
KARM 181155Z AUTO 00000KT 3/4SM BR VV005 22/21 A3004 RMK AO2 T02160210 10240 20213
KARM 181135Z AUTO 00000KT 1/2SM FG BKN014 BKN021 22/21 A3004 RMK AO2 T02160209
KARM 181115Z AUTO 00000KT 1/4SM FG BKN019 21/21 A3004 RMK AO2 T02140207
KARM 181055Z AUTO 00000KT 7SM CLR 22/21 A3004 RMK AO2 T02200212
KARM 181035Z AUTO 00000KT 4SM BR CLR 22/21 A3004 RMK AO2 T02180210
KARM 181015Z AUTO 00000KT 7SM CLR 22/22 A3003 RMK AO2 T02220215
KARM 181000Z AUTO 00000KT 7SM CLR 22/21 A3003 RMK AO2 T02200212
KARM 180935Z AUTO 00000KT 2 1/2SM BR CLR 22/21 A3003 RMK AO2 T02210211
KARM 180915Z AUTO 00000KT 3SM BR CLR 23/22 A3003 RMK AO2 T02250215
KARM 180855Z AUTO 00000KT 5SM BR CLR 23/22 A3002 RMK AO2 T02300220
KARM 180835Z AUTO 00000KT 7SM CLR 24/23 A3001 RMK AO2 T02360225
KARM 180815Z AUTO 00000KT 10SM CLR 24/23 A3002 RMK AO2 T02380227
KARM 180755Z AUTO 20003KT 7SM CLR 24/22 A3002 RMK AO2 T02350223
KARM 180735Z AUTO 18003KT 10SM CLR 23/22 A3002 RMK AO2 T02280216
KARM 180715Z AUTO 00000KT 7SM CLR 23/22 A3003 RMK AO2 T02300217
KARM 180655Z AUTO 00000KT 10SM CLR 24/22 A3003 RMK AO2 T02370223
KARM 180635Z AUTO 20003KT 7SM CLR 24/23 A3002 RMK AO2 T02400226
KARM 180615Z AUTO 20003KT 7SM CLR 24/22 A3003 RMK AO2 T02350224
KARM 180555Z AUTO 17003KT 10SM CLR 23/22 A3003 RMK AO2 T02330220 10321 20227 403540205
KARM 180535Z AUTO 18003KT 10SM CLR 23/22 A3003 RMK AO2 T02330220
KARM 180515Z AUTO 00000KT 10SM CLR 24/23 A3004 RMK AO2 T02370225
KARM 180455Z AUTO 16003KT 7SM CLR 23/22 A3004 RMK AO2 T02270215
KARM 180435Z AUTO 00000KT 10SM CLR 24/22 A3004 RMK AO2 T02350220
KARM 180415Z AUTO 00000KT 10SM CLR 24/22 A3004 RMK AO2 T02410221
KARM 180355Z AUTO 17003KT 10SM CLR 24/22 A3004 RMK AO2 T02430220
KARM 180335Z AUTO 00000KT 10SM CLR 25/23 A3004 RMK AO2 T02510225
KARM 180315Z AUTO 00000KT 10SM CLR 25/22 A3003 RMK AO2 T02460222
KARM 180255Z AUTO 15003KT 10SM CLR 25/22 A3002 RMK AO2 T02460221
KARM 180235Z AUTO 16003KT 10SM CLR 25/22 A3002 RMK AO2 T02520220
KARM 180215Z AUTO 18003KT 10SM CLR 27/22 A3002 RMK AO2 T02650218
KARM 180155Z AUTO 19004KT 10SM CLR 27/21 A3002 RMK AO2 T02710213
KARM 180135Z AUTO 19006KT 10SM CLR 28/21 A3002 RMK AO2 T02820207
KARM 180115Z AUTO 19007KT 10SM CLR 29/20 A3002 RMK AO2 T02890203
KARM 180055Z AUTO 19006KT 10SM CLR 30/20 A3001 RMK AO2 T02970201
KARM 180035Z AUTO 19008KT 10SM CLR 31/20 A3001 RMK AO2 T03050198
KARM 180015Z AUTO 19010KT 10SM CLR 31/20 A3001 RMK AO2 T03130199
KARM 172355Z AUTO 19010KT 10SM CLR 32/21 A3001 RMK AO2 T03220205 10354 20322
KARM 172335Z AUTO 18009KT 10SM CLR 33/20 A3000 RMK AO2 T03300197
KARM 172315Z AUTO 18009KT 10SM CLR 34/20 A3001 RMK AO2 T03360196
KARM 172255Z AUTO 18009KT 10SM CLR 34/20 A3000 RMK AO2 T03400199
KARM 172235Z AUTO 18009KT 10SM CLR 34/20 A3001 RMK AO2 T03430200
KARM 172215Z AUTO 15008KT 10SM CLR 35/20 A3000 RMK AO2 T03480201
KARM 172155Z AUTO 19006KT 10SM CLR 35/20 A3001 RMK AO2 T03500203
KARM 172135Z AUTO 21005KT 10SM CLR 35/20 A3001 RMK AO2 T03500196
KARM 172115Z AUTO 15003KT 10SM CLR 35/19 A3002 RMK AO2 T03450193
KARM 172055Z AUTO 00000KT 10SM CLR 35/20 A3002 RMK AO2 T03470196
KARM 172035Z AUTO 20003KT 10SM CLR 34/20 A3003 RMK AO2 T03430197
KARM 172015Z AUTO 19003KT 10SM CLR 35/20 A3004 RMK AO2 T03460195
KARM 171955Z AUTO 15003KT 10SM CLR 35/19 A3004 RMK AO2 T03450192
KARM 171935Z AUTO 00000KT 10SM CLR 34/20 A3005 RMK AO2 T03410195
KARM 171915Z AUTO 00000KT 10SM CLR 34/20 A3006 RMK AO2 T03400201
KARM 171855Z AUTO 20005KT 10SM CLR 34/21 A3006 RMK AO2 T03420205
KARM 171835Z AUTO 22004KT 10SM CLR 33/20 A3007 RMK AO2 T03310204
KARM 171815Z AUTO 20006KT 10SM CLR 33/21 A3007 RMK AO2 T03320207
KARM 171755Z AUTO 17004KT 10SM SCT036 SCT045 33/21 A3008 RMK AO2 T03300211 10331 20209
KARM 171735Z AUTO 25004KT 10SM SCT036 SCT042 32/21 A3008 RMK AO2 T03200210
KARM 171715Z AUTO 17003KT 10SM CLR 32/21 A3009 RMK AO2 T03230212
KARM 171655Z AUTO 21004KT 10SM SCT033 32/21 A3009 RMK AO2 T03210214
KARM 171635Z AUTO 22005KT 10SM SCT026 SCT031 31/22 A3009 RMK AO2 T03140220
KARM 171615Z AUTO 23006KT 10SM SCT026 SCT031 31/23 A3010 RMK AO2 T03070225
KARM 171555Z AUTO 20006KT 10SM SCT026 31/23 A3010 RMK AO2 T03090234
KARM 171535Z AUTO 21006KT 10SM SCT026 29/24 A3010 RMK AO2 T02930237
KARM 171515Z AUTO 20006KT 10SM SCT015 SCT020 SCT026 29/24 A3010 RMK AO2 T02940240
KARM 171455Z AUTO 25007KT 10SM SCT015 SCT020 29/25 A3010 RMK AO2 T02890246
KARM 171435Z AUTO 23004KT 10SM CLR 26/26 A3010 RMK AO2 T02640259
KARM 171415Z AUTO 25004KT 7SM CLR 26/25 A3010 RMK AO2 T02570252